• pl
  • eng

Awiacja
WIADOMOŚCI
ostatnia aktualizacja: 26.09.2019 09:57
Uprzejmie informujemy, że od dnia 2.09.2019 jest dostępna w formie testowej prognoza GAFOR. Prosimy o przesyłanie na adres gafor@imgw.pl uwag i sugestii, które przyczynią się do rozwoju produktu.
TAF FT 00:30 20.01.2020
  • WIND
  • SIGNIFICANT EURO
  • SIGNIFICANT
  • SIGMET
  • AIRMET
  • TAF FC
  • TAF FT
  • METAR GG30
  • METAR GG00


TAF EPBY 192330Z 2000/2024 26006KT 9999 OVC020
PROB40 TEMPO 2002/2009 4000 BR BKN006 OVC014
BECMG 2008/2010 27012KT SCT008 BKN020
BECMG 2013/2015 SCT030=

TAF EPGD 192330Z 2000/2024 27007KT 9999 BKN020
TEMPO 2000/2012 BKN012
PROB30 2001/2008 4500 BR BKN007
BECMG 2009/2012 27017KT
TEMPO 2009/2015 28018G28KT
TEMPO 2015/2024 28023G38KT
PROB40 TEMPO 2021/2024 3000 BR BKN007 BKN012=

TAF EPKK 192330Z 2000/2024 02010KT 9999 BKN023
TEMPO 2000/2008 4000 -RASN BR BKN012
PROB40 TEMPO 2000/2007 1200 -SNRA BR BKN009
BECMG 2002/2005 VRB02KT
BECMG 2009/2012 25010KT=

TAF EPKT 192330Z 2000/2024 34006KT 6000 BKN016
TEMPO 2000/2009 1200 -RASN BR BKN004 BKN008
PROB40 2002/2008 0600 FZFG
BECMG 2014/2017 27010KT=

TAF AMD EPLL 200100Z 2001/2024 VRB04KT 3000 BR BKN028
TEMPO 2001/2007 1600 BR BKN002 BKN005
BECMG 2005/2008 6000
BECMG 2009/2011 27010KT
TEMPO 2016/2024 BKN007 BKN012=

TAF EPMO 192330Z 2000/2024 VRB03KT 6000 BKN030
TEMPO 2000/2008 3000 BR
PROB30 TEMPO 2002/2007 1500 BR BKN003
BECMG 2008/2011 27010KT
PROB40 TEMPO 2018/2024 27016G26KT BKN007 BKN012=

TAF EPPO 192330Z 2000/2024 VRB02KT 8000 OVC022
TEMPO 2000/2009 3000 BR BKN007 OVC014
BECMG 2009/2011 27010KT
BECMG 2020/2022 BKN009=

TAF AMD EPRZ 200000Z 2000/2024 33004KT 4000 BR BKN006
TEMPO 2000/2008 1200 BR
PROB30 TEMPO 2000/2008 0100 FZFG OVC001
BECMG 2008/2011 6000 BKN013
BECMG 2015/2018 27010KT
TEMPO 2015/2018 4000 BR=

TAF EPSC 192330Z 2000/2024 VRB03KT 9999 BKN020
PROB40 TEMPO 2001/2014 4000 BR BKN007 BKN012
PROB30 2003/2009 1600 BR OVC004
BECMG 2009/2012 24010KT=

TAF EPWA 192330Z 2000/2024 VRB03KT 6000 BKN030
TEMPO 2000/2008 3000 BR
PROB30 TEMPO 2002/2007 1500 BR BKN003
BECMG 2008/2011 27010KT
PROB40 TEMPO 2018/2024 27016G26KT BKN007 BKN012=

TAF EPWR 192330Z 2000/2024 34005KT 9999 BKN020
TEMPO 2000/2009 3000 BR BKN005 OVC014
BECMG 2009/2011 28010KT=
Awiacja.imgw.pl jest pogodowym serwisem informacyjnym
Instytutu Meteorologii i Gospodarki Wodnej Państwowego Instytutu Badawczego.
Copyright IMGW PIB 2009-2019© Wszelkie prawa zastrzeżone.